createdAt,value
2016-09-27T00:00:18.578Z,95.6
2016-09-27T00:01:19.269Z,95.03
2016-09-27T00:02:19.959Z,95.56
2016-09-27T00:03:20.667Z,96.8
2016-09-27T00:04:21.433Z,96.51
2016-09-27T00:05:22.144Z,96.7
2016-09-27T00:06:22.846Z,96.61
2016-09-27T00:07:23.524Z,96.22
2016-09-27T00:08:24.208Z,96.32
2016-09-27T00:09:24.933Z,96.03
2016-09-27T00:10:25.654Z,96.22
2016-09-27T00:11:26.344Z,96.03
2016-09-27T00:12:27.077Z,96.03
2016-09-27T00:13:27.774Z,96.03
2016-09-27T00:14:28.481Z,95.94
2016-09-27T00:15:29.207Z,95.75
2016-09-27T00:16:29.891Z,95.65
2016-09-27T00:17:30.581Z,95.65
2016-09-27T00:18:31.274Z,95.46
2016-09-27T00:19:31.974Z,95.56
2016-09-27T00:20:32.722Z,95.79
2016-09-27T00:21:33.405Z,93.16
2016-09-27T00:22:34.112Z,93.45
2016-09-27T00:23:34.805Z,93.26
2016-09-27T00:24:35.506Z,93.54
2016-09-27T00:25:36.200Z,94.21
2016-09-27T00:26:36.938Z,93.83
2016-09-27T00:27:37.648Z,93.54
2016-09-27T00:28:38.344Z,92.87
2016-09-27T00:29:39.055Z,90.86
2016-09-27T00:30:39.781Z,90.19
2016-09-27T00:31:40.487Z,90.19
2016-09-27T00:32:41.186Z,91.63
2016-09-27T00:33:41.887Z,91.92
2016-09-27T00:34:42.570Z,94.6
2016-09-27T00:35:43.296Z,94.6
2016-09-27T00:36:43.994Z,94.69
2016-09-27T00:37:44.665Z,94.79
2016-09-27T00:38:45.349Z,95.27
2016-09-27T00:39:46.037Z,96.32
2016-09-27T00:40:46.746Z,96.03
2016-09-27T00:41:47.455Z,96.22
2016-09-27T00:42:48.130Z,95.46
2016-09-27T00:43:48.829Z,95.46
2016-09-27T00:44:49.518Z,95.36
2016-09-27T00:45:50.204Z,94.98
2016-09-27T00:46:50.896Z,95.27
2016-09-27T00:47:51.575Z,94.98
2016-09-27T00:48:52.264Z,94.31
2016-09-27T00:49:52.950Z,94.12
2016-09-27T00:50:53.624Z,94.21
2016-09-27T00:51:54.319Z,94.4
2016-09-27T00:52:55.014Z,94.31
2016-09-27T00:53:55.693Z,94.6
2016-09-27T00:54:56.393Z,94.98
2016-09-27T00:55:57.082Z,95.36
2016-09-27T00:56:57.771Z,95.65
2016-09-27T00:57:58.453Z,95.27
2016-09-27T00:58:59.147Z,95.36
2016-09-27T00:59:59.835Z,95.75
2016-09-27T01:01:00.529Z,95.65
2016-09-27T01:02:01.202Z,95.56
2016-09-27T01:03:01.898Z,95.27
2016-09-27T01:04:02.582Z,95.27
2016-09-27T01:05:03.283Z,95.56
2016-09-27T01:06:03.976Z,94.98
2016-09-27T01:07:04.662Z,96.61
2016-09-27T01:08:05.358Z,96.51
2016-09-27T01:09:06.046Z,95.61
2016-09-27T01:10:06.743Z,95.65
2016-09-27T01:11:07.444Z,96.08
2016-09-27T01:12:08.127Z,95.61
2016-09-27T01:13:08.817Z,95.61
2016-09-27T01:14:09.510Z,96.08
2016-09-27T01:15:10.245Z,95.98
2016-09-27T01:16:10.939Z,95.7
2016-09-27T01:17:11.634Z,95.51
2016-09-27T01:18:12.334Z,95.61
2016-09-27T01:19:13.028Z,95.79
2016-09-27T01:20:13.713Z,95.46
2016-09-27T01:21:14.414Z,95.36
2016-09-27T01:22:15.187Z,95.89
2016-09-27T01:23:16.453Z,95.75
2016-09-27T01:24:17.560Z,95.84
2016-09-27T01:25:19.039Z,95.75
2016-09-27T01:26:20.329Z,95.7
2016-09-27T01:27:22.292Z,95.61
2016-09-27T01:28:23.573Z,95.84
2016-09-27T01:29:24.429Z,95.36
2016-09-27T01:30:25.926Z,95.75
2016-09-27T01:31:26.754Z,95.17
2016-09-27T01:32:27.899Z,96.03
2016-09-27T01:33:28.771Z,95.61
2016-09-27T01:34:29.727Z,95.61
2016-09-27T01:35:30.963Z,95.61
2016-09-27T01:36:32.062Z,95.98
2016-09-27T01:37:32.758Z,95.89
2016-09-27T01:38:33.510Z,96.18
2016-09-27T01:39:34.299Z,95.98
2016-09-27T01:40:35.024Z,95.79
2016-09-27T01:41:35.854Z,95.98
2016-09-27T01:42:36.576Z,95.89
2016-09-27T01:43:37.403Z,96.27
2016-09-27T01:44:38.141Z,96.94
2016-09-27T01:45:39.031Z,96.56
2016-09-27T01:46:39.853Z,96.56
2016-09-27T01:47:40.614Z,96.94
2016-09-27T01:48:41.426Z,96.47
2016-09-27T01:49:42.188Z,96.56
2016-09-27T01:50:42.892Z,96.66
2016-09-27T01:51:43.619Z,96.47
2016-09-27T01:52:44.544Z,96.56
2016-09-27T01:53:45.540Z,96.47
2016-09-27T01:54:46.419Z,96.75
2016-09-27T01:55:47.225Z,96.94
2016-09-27T01:56:47.951Z,97.04
2016-09-27T01:57:48.637Z,96.8
2016-09-27T01:58:49.462Z,96.42
2016-09-27T01:59:50.482Z,96.84
2016-09-27T02:00:51.636Z,96.89
2016-09-27T02:01:52.637Z,96.89
2016-09-27T02:02:53.400Z,97.08
2016-09-27T02:03:54.111Z,97.08
2016-09-27T02:04:56.050Z,97.47
2016-09-27T02:05:59.013Z,97.37
2016-09-27T02:07:01.915Z,97.95
2016-09-27T02:08:04.746Z,97.95
2016-09-27T02:09:07.598Z,97.85
2016-09-27T02:10:10.650Z,98.52
2016-09-27T02:11:13.293Z,98.24
2016-09-27T02:12:16.236Z,98.52
2016-09-27T02:13:19.146Z,98.52
2016-09-27T02:14:21.961Z,98.04
2016-09-27T02:15:24.906Z,97.95
2016-09-27T02:16:27.675Z,97.85
2016-09-27T02:17:30.476Z,97.85
2016-09-27T02:18:31.825Z,98.24
2016-09-27T02:19:32.520Z,97.85
2016-09-27T02:20:33.219Z,98.04
2016-09-27T02:21:33.910Z,98.24
2016-09-27T02:22:34.626Z,98.14
2016-09-27T02:23:35.313Z,97.95
2016-09-27T02:24:36.025Z,98.04
2016-09-27T02:25:36.725Z,97.95
2016-09-27T02:26:37.430Z,97.85
2016-09-27T02:27:38.119Z,98.33
2016-09-27T02:28:38.810Z,98.43
2016-09-27T02:29:39.489Z,98.24
2016-09-27T02:30:40.186Z,98.14
2016-09-27T02:31:40.876Z,98.33
2016-09-27T02:32:41.585Z,98.24
2016-09-27T02:33:42.278Z,98.52
2016-09-27T02:34:42.983Z,98.14
2016-09-27T02:35:43.672Z,98.61
2016-09-27T02:36:44.370Z,98.14
2016-09-27T02:37:45.063Z,98.52
2016-09-27T02:38:45.806Z,98.81
2016-09-27T02:39:46.495Z,98.52
2016-09-27T02:40:47.176Z,98.71
2016-09-27T02:41:47.892Z,98.43
2016-09-27T02:42:48.577Z,98.52
2016-09-27T02:43:49.259Z,98.71
2016-09-27T02:44:49.963Z,98.24
2016-09-27T02:45:50.638Z,98.24
2016-09-27T02:46:51.345Z,98.43
2016-09-27T02:47:52.030Z,98.71
2016-09-27T02:48:52.721Z,98.71
2016-09-27T02:49:53.432Z,99
2016-09-27T02:50:54.120Z,98.9
2016-09-27T02:51:54.809Z,98.71
2016-09-27T02:52:55.496Z,98.61
2016-09-27T02:53:56.190Z,99
2016-09-27T02:54:56.908Z,99.33
2016-09-27T02:55:57.603Z,99.1
2016-09-27T02:56:58.289Z,99.38
2016-09-27T02:57:59.000Z,98.95
2016-09-27T02:58:59.678Z,99.24
2016-09-27T03:00:00.372Z,98.9
2016-09-27T03:01:01.058Z,99
2016-09-27T03:02:01.755Z,98.9
2016-09-27T03:03:02.462Z,98.71
2016-09-27T03:04:03.149Z,98.61
2016-09-27T03:05:03.842Z,98.75
2016-09-27T03:06:04.537Z,98.85
2016-09-27T03:07:05.237Z,98.18
2016-09-27T03:08:05.926Z,98.18
2016-09-27T03:09:06.616Z,97.99
2016-09-27T03:10:07.293Z,98.66
2016-09-27T03:11:07.983Z,98.57
2016-09-27T03:12:08.675Z,98.38
2016-09-27T03:13:09.361Z,98.28
2016-09-27T03:14:10.051Z,99.24
2016-09-27T03:15:10.730Z,99.04
2016-09-27T03:16:11.422Z,99.14
2016-09-27T03:17:12.124Z,99.14
2016-09-27T03:18:12.824Z,98.95
2016-09-27T03:19:13.526Z,99.04
2016-09-27T03:20:14.220Z,99.04
2016-09-27T03:21:14.919Z,99.24
2016-09-27T03:22:15.640Z,99.24
2016-09-27T03:23:16.331Z,98.57
2016-09-27T03:24:17.073Z,98.38
2016-09-27T03:25:17.755Z,99.04
2016-09-27T03:26:18.463Z,99.14
2016-09-27T03:27:19.156Z,99.14
2016-09-27T03:28:19.845Z,98.95
2016-09-27T03:29:20.540Z,98.85
2016-09-27T03:30:21.240Z,98.95
2016-09-27T03:31:21.979Z,99.43
2016-09-27T03:32:22.665Z,99.14
2016-09-27T03:33:23.456Z,99.24
2016-09-27T03:34:24.143Z,99.24
2016-09-27T03:35:24.833Z,99.43
2016-09-27T03:36:25.529Z,99.43
2016-09-27T03:37:26.227Z,98.85
2016-09-27T03:38:26.905Z,98.75
2016-09-27T03:39:27.590Z,99.04
2016-09-27T03:40:28.285Z,99.14
2016-09-27T03:41:28.986Z,99.24
2016-09-27T03:42:29.684Z,99.04
2016-09-27T03:43:30.371Z,99.04
2016-09-27T03:44:31.084Z,99.04
2016-09-27T03:45:31.779Z,99.24
2016-09-27T03:46:32.483Z,98.85
2016-09-27T03:47:33.177Z,98.75
2016-09-27T03:48:33.861Z,99.14
2016-09-27T03:49:34.552Z,99.24
2016-09-27T03:50:35.240Z,98.18
2016-09-27T03:51:35.941Z,99.14
2016-09-27T03:52:36.622Z,99.14
2016-09-27T03:53:37.376Z,98.47
2016-09-27T03:54:38.061Z,98.47
2016-09-27T03:55:38.759Z,99.14
2016-09-27T03:56:39.454Z,99.33
2016-09-27T03:57:40.175Z,99.24
2016-09-27T03:58:40.871Z,98.95
2016-09-27T03:59:41.565Z,98.66
2016-09-27T04:00:42.277Z,99.14
2016-09-27T04:01:42.989Z,99.14
2016-09-27T04:02:43.676Z,98.95
2016-09-27T04:03:44.399Z,98.95
2016-09-27T04:04:45.095Z,98.95
2016-09-27T04:05:45.781Z,98.95
2016-09-27T04:06:46.487Z,98.75
2016-09-27T04:07:47.176Z,99.04
2016-09-27T04:08:47.872Z,98.95
2016-09-27T04:09:48.552Z,99.04
2016-09-27T04:10:49.245Z,98.85
2016-09-27T04:11:49.949Z,99.04
2016-09-27T04:12:50.641Z,99.14
2016-09-27T04:13:51.360Z,99.33
2016-09-27T04:14:52.057Z,99.14
2016-09-27T04:15:52.735Z,98.66
2016-09-27T04:16:53.430Z,98.38
2016-09-27T04:17:54.172Z,99.14
2016-09-27T04:18:54.855Z,98.38
2016-09-27T04:19:55.586Z,98.38
2016-09-27T04:20:56.290Z,98.28
2016-09-27T04:21:56.980Z,98.38
2016-09-27T04:22:57.653Z,98.38
2016-09-27T04:23:58.348Z,98.57
2016-09-27T04:24:59.042Z,98.47
2016-09-27T04:25:59.740Z,98.57
2016-09-27T04:27:00.444Z,98.38
2016-09-27T04:28:01.179Z,98.57
2016-09-27T04:29:01.903Z,98.38
2016-09-27T04:30:02.594Z,98.47
2016-09-27T04:31:03.291Z,98.85
2016-09-27T04:32:03.973Z,98.28
2016-09-27T04:33:04.667Z,98.09
2016-09-27T04:34:05.369Z,98.18
2016-09-27T04:35:07.310Z,98.57
2016-09-27T04:36:08.260Z,98.47
2016-09-27T04:37:09.361Z,97.99
2016-09-27T04:38:09.649Z,98.09
2016-09-27T04:39:10.339Z,98.18
2016-09-27T04:40:11.064Z,97.99
2016-09-27T04:41:11.755Z,97.9
2016-09-27T04:42:12.491Z,97.99
2016-09-27T04:43:13.238Z,98.18
2016-09-27T04:44:13.944Z,98.28
2016-09-27T04:45:14.626Z,97.99
2016-09-27T04:46:15.324Z,97.9
2016-09-27T04:47:16.056Z,98.09
2016-09-27T04:48:16.745Z,98.47
2016-09-27T04:49:17.422Z,98.09
2016-09-27T04:50:18.114Z,97.99
2016-09-27T04:51:18.821Z,97.99
2016-09-27T04:52:19.492Z,98.47
2016-09-27T04:53:20.183Z,98.66
2016-09-27T04:54:20.907Z,98.28
2016-09-27T04:55:21.628Z,98.57
2016-09-27T04:56:22.355Z,98.66
2016-09-27T04:57:23.083Z,98.38
2016-09-27T04:58:23.798Z,98.28
2016-09-27T04:59:24.541Z,98.09
2016-09-27T05:00:25.231Z,98.75
2016-09-27T05:01:25.950Z,98.47
2016-09-27T05:02:26.643Z,98.66
2016-09-27T05:03:27.343Z,98.42
2016-09-27T05:04:28.033Z,98.52
2016-09-27T05:05:28.777Z,98.57
2016-09-27T05:06:29.455Z,98.52
2016-09-27T05:07:30.137Z,98.47
2016-09-27T05:08:30.862Z,98.71
2016-09-27T05:09:31.561Z,98.61
2016-09-27T05:10:32.273Z,98.57
2016-09-27T05:11:32.972Z,98.8
2016-09-27T05:12:33.661Z,98.66
2016-09-27T05:13:34.349Z,98.66
2016-09-27T05:14:35.046Z,98.33
2016-09-27T05:15:35.761Z,98.66
2016-09-27T05:16:36.460Z,98.66
2016-09-27T05:17:37.150Z,98.38
2016-09-27T05:18:37.847Z,98.66
2016-09-27T05:19:38.543Z,98.38
2016-09-27T05:20:39.241Z,98.28
2016-09-27T05:21:39.928Z,98.42
2016-09-27T05:22:40.610Z,98.38
2016-09-27T05:23:41.314Z,98.57
2016-09-27T05:24:42.032Z,98.61
2016-09-27T05:25:42.756Z,98.28
2016-09-27T05:26:43.482Z,98.52
2016-09-27T05:27:44.172Z,98.85
2016-09-27T05:28:44.859Z,98.52
2016-09-27T05:29:45.549Z,98.47
2016-09-27T05:30:46.237Z,98.23
2016-09-27T05:31:46.926Z,98.18
2016-09-27T05:32:47.622Z,98.04
2016-09-27T05:33:48.307Z,98.09
2016-09-27T05:34:49.000Z,98.57
2016-09-27T05:35:49.700Z,98.47
2016-09-27T05:36:50.407Z,97.75
2016-09-27T05:37:51.102Z,98.13
2016-09-27T05:38:51.783Z,98.18
2016-09-27T05:39:52.482Z,98.28
2016-09-27T05:40:53.167Z,98.57
2016-09-27T05:41:53.879Z,98.28
2016-09-27T05:42:54.613Z,98.57
2016-09-27T05:43:55.298Z,98.47
2016-09-27T05:44:55.981Z,98.09
2016-09-27T05:45:56.679Z,98.28
2016-09-27T05:46:57.377Z,98.28
2016-09-27T05:47:58.078Z,98.18
2016-09-27T05:48:58.805Z,97.8
2016-09-27T05:49:59.496Z,98.09
2016-09-27T05:51:00.221Z,97.9
2016-09-27T05:52:00.920Z,97.42
2016-09-27T05:53:01.656Z,97.23
2016-09-27T05:54:02.349Z,97.23
2016-09-27T05:55:03.042Z,97.52
2016-09-27T05:56:03.732Z,97.13
2016-09-27T05:57:04.438Z,96.66
2016-09-27T05:58:05.127Z,96.94
2016-09-27T05:59:05.811Z,96.94
2016-09-27T06:00:06.525Z,96.84
2016-09-27T06:01:07.216Z,96.56
2016-09-27T06:02:07.902Z,96.18
2016-09-27T06:03:08.599Z,96.56
2016-09-27T06:04:09.318Z,96.66
2016-09-27T06:05:10.020Z,96.56
2016-09-27T06:06:10.715Z,96.27
2016-09-27T06:07:11.416Z,96.66
2016-09-27T06:08:12.106Z,96.47
2016-09-27T06:09:12.811Z,96.56
2016-09-27T06:10:13.504Z,96.37
2016-09-27T06:11:14.221Z,97.04
2016-09-27T06:12:14.921Z,96.47
2016-09-27T06:13:15.614Z,96.47
2016-09-27T06:14:16.310Z,96.56
2016-09-27T06:15:16.987Z,96.56
2016-09-27T06:16:17.744Z,96.37
2016-09-27T06:17:18.449Z,96.37
2016-09-27T06:18:19.136Z,96.27
2016-09-27T06:19:19.844Z,96.37
2016-09-27T06:20:20.531Z,95.89
2016-09-27T06:21:21.244Z,95.51
2016-09-27T06:22:21.953Z,95.51
2016-09-27T06:23:22.646Z,95.51
2016-09-27T06:24:23.339Z,96.08
2016-09-27T06:25:24.036Z,95.51
2016-09-27T06:26:24.736Z,95.41
2016-09-27T06:27:25.460Z,95.79
2016-09-27T06:28:26.188Z,95.61
2016-09-27T06:29:26.914Z,95.61
2016-09-27T06:30:27.632Z,95.79
2016-09-27T06:31:28.318Z,96.27
2016-09-27T06:32:29.023Z,95.79
2016-09-27T06:33:29.722Z,95.79
2016-09-27T06:34:30.440Z,95.75
2016-09-27T06:35:31.143Z,95.7
2016-09-27T06:36:31.840Z,95.12
2016-09-27T06:37:32.552Z,95.32
2016-09-27T06:38:33.248Z,95.46
2016-09-27T06:39:33.952Z,94.98
2016-09-27T06:40:34.655Z,93.12
2016-09-27T06:41:35.349Z,91.87
2016-09-27T06:42:36.169Z,90.09
2016-09-27T06:43:36.857Z,88.99
2016-09-27T06:44:37.552Z,87.79
2016-09-27T06:45:38.272Z,85.88
2016-09-27T06:46:38.945Z,84.48
2016-09-27T06:47:39.638Z,83.23
2016-09-27T06:48:40.344Z,82.51
2016-09-27T06:49:41.044Z,81.07
2016-09-27T06:50:41.739Z,79.67
2016-09-27T06:51:42.437Z,79.82
2016-09-27T06:52:43.141Z,80.24
2016-09-27T06:53:43.835Z,79.53
2016-09-27T06:54:44.534Z,80.34
2016-09-27T06:55:45.259Z,79.67
2016-09-27T06:56:45.959Z,79.13
2016-09-27T06:57:46.663Z,77.98
2016-09-27T06:58:47.386Z,77.59
2016-09-27T06:59:48.109Z,76.77
2016-09-27T07:00:48.803Z,76.67
2016-09-27T07:01:49.504Z,76.57
2016-09-27T07:02:50.208Z,75.52
2016-09-27T07:03:50.913Z,75.07
2016-09-27T07:04:51.617Z,73.44
2016-09-27T07:05:52.331Z,73.44
2016-09-27T07:06:53.040Z,73.63
2016-09-27T07:07:53.726Z,74.21
2016-09-27T07:08:54.435Z,75.32
2016-09-27T07:09:55.127Z,75.94
2016-09-27T07:10:55.839Z,74.44
2016-09-27T07:11:56.549Z,72.8
2016-09-27T07:12:57.270Z,72.07
2016-09-27T07:13:57.978Z,70.47
2016-09-27T07:14:58.686Z,69.79
2016-09-27T07:15:59.406Z,69.41
2016-09-27T07:17:00.104Z,69.79
2016-09-27T07:18:00.824Z,69.51
2016-09-27T07:19:01.540Z,69.15
2016-09-27T07:20:02.254Z,68.48
2016-09-27T07:21:02.948Z,67.74
2016-09-27T07:22:03.648Z,67.36
2016-09-27T07:23:04.357Z,67.07
2016-09-27T07:24:05.062Z,66.78
2016-09-27T07:25:05.769Z,67.65
2016-09-27T07:26:06.463Z,67.36
2016-09-27T07:27:07.165Z,67.65
2016-09-27T07:28:07.902Z,67.74
2016-09-27T07:29:08.611Z,67.65
2016-09-27T07:30:09.319Z,66.97
2016-09-27T07:31:10.027Z,66.78
2016-09-27T07:32:10.729Z,66.91
2016-09-27T07:33:11.417Z,66.82
2016-09-27T07:34:12.125Z,66.43
2016-09-27T07:35:12.835Z,66.14
2016-09-27T07:36:13.546Z,66.2
2016-09-27T07:37:14.261Z,66.01
2016-09-27T07:38:14.964Z,66.69
2016-09-27T07:39:15.686Z,67.07
2016-09-27T07:40:16.393Z,66.97
2016-09-27T07:41:17.110Z,66.82
2016-09-27T07:42:17.811Z,67.4
2016-09-27T07:43:18.508Z,68.26
2016-09-27T07:44:19.216Z,67.26
2016-09-27T07:45:19.921Z,67.65
2016-09-27T07:46:20.617Z,67.71
2016-09-27T07:47:21.316Z,68.48
2016-09-27T07:48:22.077Z,69.15
2016-09-27T07:49:22.777Z,69.79
2016-09-27T07:50:23.483Z,70.37
2016-09-27T07:51:24.214Z,70.82
2016-09-27T07:52:24.927Z,72.07
2016-09-27T07:53:25.634Z,72.26
2016-09-27T07:54:26.331Z,73.38
2016-09-27T07:55:27.053Z,75.21
2016-09-27T07:56:27.777Z,74.19
2016-09-27T07:57:28.481Z,73.8
2016-09-27T07:58:29.189Z,73.65
2016-09-27T07:59:29.919Z,72.74
2016-09-27T08:00:30.643Z,71.69
2016-09-27T08:01:31.354Z,72.8
2016-09-27T08:02:32.074Z,71.78
2016-09-27T08:03:32.793Z,71.14
2016-09-27T08:04:33.525Z,69.99
2016-09-27T08:05:34.230Z,69.54
2016-09-27T08:06:34.930Z,68.48
2016-09-27T08:07:35.639Z,69.25
2016-09-27T08:08:36.348Z,69.02
2016-09-27T08:09:37.043Z,68.87
2016-09-27T08:10:37.763Z,67.61
2016-09-27T08:11:38.468Z,67.42
2016-09-27T08:12:39.169Z,67.26
2016-09-27T08:13:39.876Z,66.2
2016-09-27T08:14:40.619Z,67.87
2016-09-27T08:15:41.323Z,68.13
2016-09-27T08:16:42.032Z,69.89
2016-09-27T08:17:42.773Z,69.51
2016-09-27T08:18:43.506Z,68.77
2016-09-27T08:19:44.216Z,66.55
2016-09-27T08:20:44.953Z,66.07
2016-09-27T08:21:45.663Z,69.15
2016-09-27T08:22:46.396Z,66.55
2016-09-27T08:23:47.113Z,65.72
2016-09-27T08:24:47.958Z,63.85
2016-09-27T08:25:48.663Z,67.52
2016-09-27T08:26:49.384Z,69.12
2016-09-27T08:27:50.109Z,67.97
2016-09-27T08:28:50.833Z,68.16
2016-09-27T08:29:51.557Z,66.94
2016-09-27T08:30:52.300Z,69.06
2016-09-27T08:31:53.009Z,65.72
2016-09-27T08:32:53.746Z,65.63
2016-09-27T08:33:54.467Z,65.14
2016-09-27T08:34:55.174Z,65.14
2016-09-27T08:35:55.904Z,63.79
2016-09-27T08:36:56.617Z,62.54
2016-09-27T08:37:57.326Z,65.24
2016-09-27T08:38:58.049Z,63.98
2016-09-27T08:39:58.744Z,63.67
2016-09-27T08:40:59.463Z,64.15
2016-09-27T08:42:00.174Z,66.75
2016-09-27T08:43:00.879Z,65.2
2016-09-27T08:44:01.580Z,63.67
2016-09-27T08:45:02.298Z,63.76
2016-09-27T08:46:03.090Z,63.95
2016-09-27T08:47:03.817Z,66.07
2016-09-27T08:48:04.552Z,64.63
2016-09-27T08:49:05.258Z,63.21
2016-09-27T08:50:05.971Z,62.12
2016-09-27T08:51:06.667Z,62.29
2016-09-27T08:52:07.373Z,62.77
2016-09-27T08:53:08.100Z,61.68
2016-09-27T08:54:08.820Z,63.7
2016-09-27T08:55:09.536Z,65.72
2016-09-27T08:56:10.266Z,65.5
2016-09-27T08:57:11.093Z,64.63
2016-09-27T08:58:12.020Z,66.74
2016-09-27T08:59:12.910Z,65.5
2016-09-27T09:00:13.863Z,63.18
2016-09-27T09:01:14.636Z,63.64
2016-09-27T09:02:15.431Z,64.73
2016-09-27T09:03:16.150Z,63.86
2016-09-27T09:04:16.931Z,64.98
2016-09-27T09:05:17.699Z,66.61
2016-09-27T09:06:18.548Z,67.71
2016-09-27T09:07:19.167Z,69.89
2016-09-27T09:08:19.997Z,69.02
2016-09-27T09:09:20.706Z,68.89
2016-09-27T09:10:21.514Z,69.56
2016-09-27T09:11:22.246Z,71.67
2016-09-27T09:12:23.026Z,70.72
2016-09-27T09:13:23.748Z,72.06
2016-09-27T09:14:24.769Z,72.06
2016-09-27T09:15:25.543Z,72
2016-09-27T09:16:26.301Z,73.69
2016-09-27T09:17:27.014Z,75.71
2016-09-27T09:18:27.731Z,73.5
2016-09-27T09:19:28.438Z,73.21
2016-09-27T09:20:29.155Z,73.88
2016-09-27T09:21:29.868Z,74.08
2016-09-27T09:22:30.572Z,73.02
2016-09-27T09:23:31.277Z,74.65
2016-09-27T09:24:31.967Z,71.77
2016-09-27T09:25:32.676Z,68.12
2016-09-27T09:26:33.369Z,68.51
2016-09-27T09:27:34.073Z,70.04
2016-09-27T09:28:34.818Z,72.73
2016-09-27T09:29:35.524Z,71
2016-09-27T09:30:36.280Z,71.67
2016-09-27T09:31:36.979Z,70.43
2016-09-27T09:32:37.708Z,67.64
2016-09-27T09:33:38.416Z,66.49
2016-09-27T09:34:39.147Z,65.53
2016-09-27T09:35:39.876Z,65.43
2016-09-27T09:36:40.610Z,66.16
2016-09-27T09:37:41.322Z,67.93
2016-09-27T09:38:42.044Z,68.89
2016-09-27T09:39:42.740Z,70.39
2016-09-27T09:40:43.455Z,70.52
2016-09-27T09:41:44.168Z,68.95
2016-09-27T09:42:44.900Z,67.7
2016-09-27T09:43:45.609Z,68.76
2016-09-27T09:44:46.305Z,67.99
2016-09-27T09:45:47.019Z,68.89
2016-09-27T09:46:47.748Z,66.55
2016-09-27T09:47:48.447Z,67.03
2016-09-27T09:48:49.144Z,67.07
2016-09-27T09:49:49.844Z,65.53
2016-09-27T09:50:50.537Z,65.14
2016-09-27T09:51:51.266Z,67.25
2016-09-27T09:52:51.962Z,69.37
2016-09-27T09:53:52.658Z,66.97
2016-09-27T09:54:53.355Z,68.21
2016-09-27T09:55:54.062Z,68.79
2016-09-27T09:56:54.780Z,69.27
2016-09-27T09:57:55.473Z,68.21
2016-09-27T09:58:56.183Z,70.52
2016-09-27T09:59:56.883Z,67.54
2016-09-27T10:00:57.592Z,68.12
2016-09-27T10:01:58.305Z,68.12
2016-09-27T10:02:59.029Z,68.7
2016-09-27T10:03:59.738Z,67.64
2016-09-27T10:05:00.434Z,67.45
2016-09-27T10:06:01.142Z,67.13
2016-09-27T10:07:01.844Z,68.51
2016-09-27T10:08:02.539Z,69.56
2016-09-27T10:09:03.350Z,68.02
2016-09-27T10:10:04.093Z,67.99
2016-09-27T10:11:04.787Z,65.43
2016-09-27T10:12:05.541Z,66.58
2016-09-27T10:13:06.249Z,67.35
2016-09-27T10:14:06.953Z,69.62
2016-09-27T10:15:07.650Z,68.85
2016-09-27T10:16:08.349Z,69.37
2016-09-27T10:17:09.055Z,68.89
2016-09-27T10:18:09.755Z,71.19
2016-09-27T10:19:10.468Z,71.19
2016-09-27T10:20:11.176Z,67.35
2016-09-27T10:21:11.879Z,68.98
2016-09-27T10:22:12.592Z,69.08
2016-09-27T10:23:13.341Z,70.14
2016-09-27T10:24:14.056Z,68.21
2016-09-27T10:25:14.774Z,68.98
2016-09-27T10:26:15.530Z,68.79
2016-09-27T10:27:16.220Z,68.21
2016-09-27T10:28:16.928Z,68.12
2016-09-27T10:29:17.633Z,67.74
2016-09-27T10:30:18.339Z,68.12
2016-09-27T10:31:19.047Z,69.27
2016-09-27T10:32:19.743Z,71.48
2016-09-27T10:33:20.434Z,67.16
2016-09-27T10:34:21.144Z,67.25
2016-09-27T10:35:21.852Z,68.98
2016-09-27T10:36:22.592Z,69.75
2016-09-27T10:37:23.304Z,64.37
2016-09-27T10:38:23.997Z,63.83
2016-09-27T10:39:24.698Z,64.98
2016-09-27T10:40:25.390Z,63.54
2016-09-27T10:41:26.158Z,63.73
2016-09-27T10:42:26.865Z,65.17
2016-09-27T10:43:27.565Z,60.56
2016-09-27T10:44:28.259Z,61.61
2016-09-27T10:45:28.948Z,61.33
2016-09-27T10:46:29.654Z,63.22
2016-09-27T10:47:30.349Z,62.1
2016-09-27T10:48:31.043Z,64.02
2016-09-27T10:49:31.807Z,63.45
2016-09-27T10:50:32.539Z,65.08
2016-09-27T10:51:33.240Z,65.08
2016-09-27T10:52:33.946Z,66.04
2016-09-27T10:53:34.638Z,63.06
2016-09-27T10:54:35.354Z,58.83
2016-09-27T10:55:36.071Z,59.31
2016-09-27T10:56:36.781Z,58.45
2016-09-27T10:57:37.492Z,57.77
2016-09-27T10:58:38.219Z,58.25
2016-09-27T10:59:38.923Z,59.5
2016-09-27T11:00:39.648Z,61.52
2016-09-27T11:01:40.367Z,65.05
2016-09-27T11:02:41.071Z,59.66
2016-09-27T11:03:41.775Z,62.35
2016-09-27T11:04:42.480Z,62.35
2016-09-27T11:05:43.233Z,61.49
2016-09-27T11:06:43.954Z,61.75
2016-09-27T11:07:44.659Z,60.88
2016-09-27T11:08:45.355Z,62.9
2016-09-27T11:09:46.052Z,62.9
2016-09-27T11:10:46.751Z,63.28
2016-09-27T11:11:47.451Z,64.63
2016-09-27T11:12:48.164Z,62.61
2016-09-27T11:13:48.849Z,64.63
2016-09-27T11:14:49.559Z,65.43
2016-09-27T11:15:50.304Z,63.96
2016-09-27T11:16:51.007Z,61.75
2016-09-27T11:17:51.715Z,61.2
2016-09-27T11:18:52.417Z,59.57
2016-09-27T11:19:53.144Z,60.05
2016-09-27T11:20:53.845Z,60.05
2016-09-27T11:21:54.575Z,62.07
2016-09-27T11:22:55.299Z,62.45
2016-09-27T11:23:56.006Z,65.23
2016-09-27T11:24:56.737Z,63.32
2016-09-27T11:25:57.434Z,63.22
2016-09-27T11:26:58.160Z,64.76
2016-09-27T11:27:58.891Z,66.77
2016-09-27T11:28:59.585Z,62.93
2016-09-27T11:30:00.298Z,63.99
2016-09-27T11:31:01.022Z,63.79
2016-09-27T11:32:01.748Z,64.6
2016-09-27T11:33:02.438Z,62.45
2016-09-27T11:34:03.141Z,62.58
2016-09-27T11:35:03.856Z,62.77
2016-09-27T11:36:04.560Z,63.64
2016-09-27T11:37:05.275Z,62.68
2016-09-27T11:38:05.982Z,62.68
2016-09-27T11:39:06.682Z,61.04
2016-09-27T11:40:07.379Z,62.51
2016-09-27T11:41:08.099Z,62.29
2016-09-27T11:42:08.780Z,63.38
2016-09-27T11:43:09.484Z,64.69
2016-09-27T11:44:10.190Z,63.95
2016-09-27T11:45:10.917Z,62.19
2016-09-27T11:46:11.628Z,60.3
2016-09-27T11:47:12.329Z,58.37
2016-09-27T11:48:13.035Z,57.8
2016-09-27T11:49:13.807Z,58.89
2016-09-27T11:50:14.517Z,57.35
2016-09-27T11:51:15.229Z,61.46
2016-09-27T11:52:15.929Z,59.53
2016-09-27T11:53:16.631Z,59.63
2016-09-27T11:54:17.329Z,60.69
2016-09-27T11:55:18.027Z,59.15
2016-09-27T11:56:18.722Z,59.24
2016-09-27T11:57:19.419Z,60.3
2016-09-27T11:58:20.117Z,60.49
2016-09-27T11:59:20.838Z,58.95
2016-09-27T12:00:21.578Z,58.67
2016-09-27T12:01:22.288Z,59.44
2016-09-27T12:02:23.014Z,57.25
2016-09-27T12:03:23.731Z,58.22
2016-09-27T12:04:24.423Z,62.06
2016-09-27T12:05:25.133Z,60.49
2016-09-27T12:06:25.866Z,60.97
2016-09-27T12:07:26.576Z,58.37
2016-09-27T12:08:27.298Z,61.46
2016-09-27T12:09:27.989Z,58.37
2016-09-27T12:10:28.682Z,57.13
2016-09-27T12:11:29.369Z,59.24
2016-09-27T12:12:30.078Z,57.35
2016-09-27T12:13:30.784Z,58.31
2016-09-27T12:14:31.488Z,58.67
2016-09-27T12:15:32.196Z,57.45
2016-09-27T12:16:32.894Z,57.99
2016-09-27T12:17:33.605Z,57.99
2016-09-27T12:18:34.317Z,59.15
2016-09-27T12:19:35.018Z,58.86
2016-09-27T12:20:35.728Z,60.3
2016-09-27T12:21:36.456Z,60.97
2016-09-27T12:22:37.194Z,58.76
2016-09-27T12:23:38.078Z,61.36
2016-09-27T12:24:38.579Z,59.24
2016-09-27T12:25:39.280Z,59.72
2016-09-27T12:26:40.075Z,60.49
2016-09-27T12:27:40.774Z,60.3
2016-09-27T12:28:41.483Z,59.34
2016-09-27T12:29:42.350Z,59.63
2016-09-27T12:30:43.063Z,59.44
2016-09-27T12:31:43.778Z,58.37
2016-09-27T12:32:44.514Z,58.47
2016-09-27T12:33:45.230Z,59.53
2016-09-27T12:34:45.911Z,57.22
2016-09-27T12:35:46.617Z,57.32
2016-09-27T12:36:47.336Z,57.22
2016-09-27T12:37:48.032Z,56.74
2016-09-27T12:38:48.756Z,57.32
2016-09-27T12:39:49.456Z,57.51
2016-09-27T12:40:50.152Z,57.32
2016-09-27T12:41:50.862Z,57.9
2016-09-27T12:42:51.549Z,55.71
2016-09-27T12:43:52.258Z,55.23
2016-09-27T12:44:53.257Z,56.29
2016-09-27T12:45:54.201Z,58.22
2016-09-27T12:46:55.186Z,56.77
2016-09-27T12:47:56.086Z,56.48
2016-09-27T12:48:57.031Z,55.52
2016-09-27T12:49:58.084Z,54.46
2016-09-27T12:50:59.134Z,53.59
2016-09-27T12:52:00.125Z,52.73
2016-09-27T12:53:01.197Z,52.54
2016-09-27T12:54:02.286Z,53.31
2016-09-27T12:55:03.357Z,53.78
2016-09-27T12:56:04.455Z,52.83
2016-09-27T12:57:05.531Z,50.71
2016-09-27T12:58:06.643Z,50.13
2016-09-27T12:59:07.770Z,50.61
2016-09-27T13:00:08.874Z,50.9
2016-09-27T13:01:10.014Z,51.57
2016-09-27T19:52:50.679Z,72.84
2016-09-27T19:53:51.451Z,72.64
2016-09-27T19:54:52.159Z,72.74